createdAt,value
2017-11-24T00:00:37.274Z,999.74
2017-11-24T00:01:38.860Z,999.75
2017-11-24T00:02:39.462Z,999.72
2017-11-24T00:03:40.062Z,999.73
2017-11-24T00:04:40.670Z,999.72
2017-11-24T00:05:41.268Z,999.70
2017-11-24T00:06:41.860Z,999.72
2017-11-24T00:07:42.484Z,999.70
2017-11-24T00:08:43.067Z,999.63
2017-11-24T00:09:43.675Z,999.62
2017-11-24T00:10:44.274Z,999.56
2017-11-24T00:11:44.876Z,999.58
2017-11-24T00:12:45.467Z,999.58
2017-11-24T00:13:46.061Z,999.61
2017-11-24T00:14:46.671Z,999.59
2017-11-24T00:15:47.277Z,999.60
2017-11-24T00:16:47.906Z,999.60
2017-11-24T00:17:48.514Z,999.56
2017-11-24T00:18:49.100Z,999.54
2017-11-24T00:19:49.705Z,999.55
2017-11-24T00:20:50.309Z,999.58
2017-11-24T00:21:50.903Z,999.59
2017-11-24T00:22:51.550Z,999.57
2017-11-24T00:23:52.140Z,999.54
2017-11-24T00:24:52.742Z,999.51
2017-11-24T00:25:53.354Z,999.48
2017-11-24T00:26:53.970Z,999.53
2017-11-24T00:27:54.578Z,999.48
2017-11-24T00:28:55.176Z,999.43
2017-11-24T00:29:55.793Z,999.39
2017-11-24T00:30:56.399Z,999.43
2017-11-24T00:31:57.000Z,999.40
2017-11-24T00:32:57.604Z,999.38
2017-11-24T00:33:58.225Z,999.38
2017-11-24T00:34:58.834Z,999.34
2017-11-24T00:35:59.473Z,999.31
2017-11-24T00:37:00.044Z,999.27
2017-11-24T00:38:00.661Z,999.26
2017-11-24T00:39:01.253Z,999.27
2017-11-24T00:40:01.860Z,999.26
2017-11-24T00:41:02.453Z,999.30
2017-11-24T00:42:03.065Z,999.31
2017-11-24T00:43:03.673Z,999.28
2017-11-24T00:44:04.278Z,999.29
2017-11-24T00:45:04.875Z,999.29
2017-11-24T00:46:05.497Z,999.29
2017-11-24T00:47:06.074Z,999.27
2017-11-24T00:48:06.692Z,999.24
2017-11-24T00:49:07.283Z,999.23
2017-11-24T00:50:07.878Z,999.21
2017-11-24T00:51:08.490Z,999.19
2017-11-24T00:52:09.085Z,999.14
2017-11-24T00:53:09.695Z,999.08
2017-11-24T00:54:10.300Z,999.05
2017-11-24T00:55:10.897Z,999.00
2017-11-24T00:56:11.500Z,999.03
2017-11-24T00:57:12.111Z,999.05
2017-11-24T00:58:12.707Z,999.05
2017-11-24T00:59:13.322Z,999.01
2017-11-24T01:00:13.920Z,999.01
2017-11-24T01:01:14.546Z,999.02
2017-11-24T01:02:15.150Z,999.01
2017-11-24T01:03:15.772Z,999.01
2017-11-24T01:04:16.383Z,998.95
2017-11-24T01:05:16.994Z,998.94
2017-11-24T01:06:17.583Z,998.90
2017-11-24T01:07:18.179Z,998.90
2017-11-24T01:08:18.792Z,998.90
2017-11-24T01:09:19.383Z,998.84
2017-11-24T01:10:19.988Z,998.88
2017-11-24T01:11:20.585Z,998.84
2017-11-24T01:12:21.184Z,998.80
2017-11-24T01:13:21.782Z,998.73
2017-11-24T01:14:22.380Z,998.74
2017-11-24T01:15:22.979Z,998.73
2017-11-24T01:16:23.573Z,998.74
2017-11-24T01:17:24.173Z,998.74
2017-11-24T01:18:24.766Z,998.74
2017-11-24T01:19:25.366Z,998.73
2017-11-24T01:20:25.964Z,998.73
2017-11-24T01:21:26.563Z,998.68
2017-11-24T01:22:27.182Z,998.68
2017-11-24T01:23:27.799Z,998.62
2017-11-24T01:24:28.409Z,998.66
2017-11-24T01:25:29.025Z,998.68
2017-11-24T01:26:29.624Z,998.64
2017-11-24T01:27:30.239Z,998.66
2017-11-24T01:28:30.857Z,998.65
2017-11-24T01:29:31.449Z,998.59
2017-11-24T01:30:32.051Z,998.55
2017-11-24T01:31:32.652Z,998.56
2017-11-24T01:32:33.259Z,998.51
2017-11-24T01:33:33.873Z,998.51
2017-11-24T01:34:34.485Z,998.49
2017-11-24T01:35:35.100Z,998.49
2017-11-24T01:36:35.706Z,998.46
2017-11-24T01:37:36.324Z,998.41
2017-11-24T01:38:36.934Z,998.42
2017-11-24T01:39:37.543Z,998.39
2017-11-24T01:40:38.150Z,998.32
2017-11-24T01:41:38.755Z,998.35
2017-11-24T01:42:39.359Z,998.29
2017-11-24T01:43:39.970Z,998.24
2017-11-24T01:44:40.562Z,998.22
2017-11-24T01:45:41.167Z,998.19
2017-11-24T01:46:41.783Z,998.20
2017-11-24T01:47:42.389Z,998.24
2017-11-24T01:48:42.995Z,998.30
2017-11-24T01:49:43.592Z,998.32
2017-11-24T01:50:44.195Z,998.34
2017-11-24T01:51:44.786Z,998.36
2017-11-24T01:52:45.398Z,998.32
2017-11-24T01:53:45.997Z,998.30
2017-11-24T01:54:46.594Z,998.29
2017-11-24T01:55:47.185Z,998.29
2017-11-24T01:56:47.795Z,998.27
2017-11-24T01:57:48.409Z,998.25
2017-11-24T01:58:49.022Z,998.26
2017-11-24T01:59:49.635Z,998.23
2017-11-24T02:00:50.249Z,998.20
2017-11-24T02:01:50.854Z,998.15
2017-11-24T02:02:51.455Z,998.13
2017-11-24T02:03:52.058Z,998.19
2017-11-24T02:04:52.665Z,998.22
2017-11-24T02:05:53.259Z,998.18
2017-11-24T02:06:53.853Z,998.20
2017-11-24T02:07:54.465Z,998.19
2017-11-24T02:08:55.078Z,998.20
2017-11-24T02:09:55.694Z,998.24
2017-11-24T02:10:56.283Z,998.22
2017-11-24T02:11:56.883Z,998.26
2017-11-24T02:12:57.482Z,998.23
2017-11-24T02:13:58.078Z,998.28
2017-11-24T02:14:58.682Z,998.32
2017-11-24T02:15:59.291Z,998.36
2017-11-24T02:16:59.899Z,998.34
2017-11-24T02:18:00.492Z,998.33
2017-11-24T02:19:01.103Z,998.26
2017-11-24T02:20:01.716Z,998.14
2017-11-24T02:21:02.332Z,998.06
2017-11-24T02:22:02.944Z,998.05
2017-11-24T02:23:03.557Z,998.01
2017-11-24T02:24:04.162Z,998.01
2017-11-24T02:25:04.762Z,998.05
2017-11-24T02:26:05.354Z,998.06
2017-11-24T02:27:05.953Z,998.08
2017-11-24T02:28:06.563Z,998.02
2017-11-24T02:29:07.161Z,997.94
2017-11-24T02:30:07.758Z,997.89
2017-11-24T02:31:08.353Z,997.80
2017-11-24T02:32:08.951Z,997.82
2017-11-24T02:33:09.537Z,997.70
2017-11-24T02:34:10.141Z,997.72
2017-11-24T02:35:10.749Z,997.72
2017-11-24T02:36:11.343Z,997.71
2017-11-24T02:37:11.946Z,997.72
2017-11-24T02:38:12.572Z,997.70
2017-11-24T02:39:13.169Z,997.69
2017-11-24T02:40:13.766Z,997.66
2017-11-24T02:41:14.378Z,997.58
2017-11-24T02:42:14.983Z,997.52
2017-11-24T02:43:15.584Z,997.45
2017-11-24T02:44:16.199Z,997.49
2017-11-24T02:45:16.807Z,997.55
2017-11-24T02:46:17.411Z,997.57
2017-11-24T02:47:18.026Z,997.58
2017-11-24T02:48:18.616Z,997.58
2017-11-24T02:49:19.217Z,997.63
2017-11-24T02:50:19.824Z,997.64
2017-11-24T02:51:20.425Z,997.57
2017-11-24T02:52:21.037Z,997.60
2017-11-24T02:53:21.636Z,997.76
2017-11-24T02:54:22.249Z,997.89
2017-11-24T02:55:22.847Z,997.86
2017-11-24T02:56:23.458Z,997.67
2017-11-24T02:57:24.073Z,997.53
2017-11-24T02:58:24.680Z,997.61
2017-11-24T02:59:25.288Z,997.85
2017-11-24T03:00:25.882Z,997.97
2017-11-24T03:01:26.478Z,997.93
2017-11-24T03:02:27.097Z,997.75
2017-11-24T03:03:27.681Z,997.65
2017-11-24T03:04:28.283Z,997.73
2017-11-24T03:05:28.894Z,997.79
2017-11-24T03:06:29.497Z,997.75
2017-11-24T03:07:30.096Z,997.79
2017-11-24T03:08:30.698Z,997.71
2017-11-24T03:09:31.306Z,997.71
2017-11-24T03:10:31.923Z,997.76
2017-11-24T03:11:32.527Z,997.68
2017-11-24T03:12:33.128Z,997.61
2017-11-24T03:13:33.724Z,997.60
2017-11-24T03:14:34.338Z,997.49
2017-11-24T03:15:34.935Z,997.49
2017-11-24T03:16:35.552Z,997.44
2017-11-24T03:17:36.146Z,997.33
2017-11-24T03:18:36.756Z,997.34
2017-11-24T03:19:37.359Z,997.34
2017-11-24T03:20:37.965Z,997.32
2017-11-24T03:21:38.571Z,997.24
2017-11-24T03:22:39.179Z,997.16
2017-11-24T03:23:39.773Z,997.12
2017-11-24T03:24:40.370Z,997.01
2017-11-24T03:25:40.965Z,996.85
2017-11-24T03:26:41.556Z,996.79
2017-11-24T03:27:42.164Z,996.71
2017-11-24T03:28:42.780Z,996.67
2017-11-24T03:29:43.388Z,996.59
2017-11-24T03:30:44.000Z,996.50
2017-11-24T03:31:44.629Z,996.41
2017-11-24T03:32:45.209Z,996.33
2017-11-24T03:33:45.822Z,996.19
2017-11-24T03:34:46.436Z,996.13
2017-11-24T03:35:47.029Z,996.14
2017-11-24T03:36:47.622Z,996.06
2017-11-24T03:37:48.218Z,996.10
2017-11-24T03:38:48.824Z,996.17
2017-11-24T03:39:49.434Z,996.27
2017-11-24T03:40:50.070Z,996.35
2017-11-24T03:41:50.650Z,996.36
2017-11-24T03:42:51.267Z,996.38
2017-11-24T03:43:51.876Z,996.43
2017-11-24T03:44:52.473Z,996.54
2017-11-24T03:45:53.079Z,996.59
2017-11-24T03:46:53.670Z,996.62
2017-11-24T03:47:54.271Z,996.63
2017-11-24T03:48:54.880Z,996.64
2017-11-24T03:49:55.477Z,996.58
2017-11-24T03:50:56.063Z,996.49
2017-11-24T03:51:56.657Z,996.47
2017-11-24T03:52:57.268Z,996.44
2017-11-24T03:53:57.875Z,996.48
2017-11-24T03:54:58.492Z,996.49
2017-11-24T03:55:59.101Z,996.56
2017-11-24T03:56:59.695Z,996.63
2017-11-24T03:58:00.303Z,996.68
2017-11-24T03:59:00.879Z,996.69
2017-11-24T04:00:01.491Z,996.63
2017-11-24T04:01:02.092Z,996.67
2017-11-24T04:02:02.692Z,996.63
2017-11-24T04:03:03.273Z,996.63
2017-11-24T04:04:03.867Z,996.69
2017-11-24T04:05:04.486Z,996.63
2017-11-24T04:06:05.069Z,996.55
2017-11-24T04:07:05.677Z,996.49
2017-11-24T04:08:06.287Z,996.39
2017-11-24T04:09:06.888Z,996.39
2017-11-24T04:10:07.488Z,996.40
2017-11-24T04:11:08.105Z,996.40
2017-11-24T04:12:08.693Z,996.32
2017-11-24T04:13:09.289Z,996.28
2017-11-24T04:14:09.880Z,996.22
2017-11-24T04:15:10.483Z,996.12
2017-11-24T04:16:11.093Z,996.05
2017-11-24T04:17:11.686Z,996.02
2017-11-24T04:18:12.307Z,996.04
2017-11-24T04:19:12.896Z,996.05
2017-11-24T04:20:13.504Z,996.05
2017-11-24T04:21:14.119Z,996.10
2017-11-24T04:22:14.715Z,996.14
2017-11-24T04:23:15.329Z,996.08
2017-11-24T04:24:15.935Z,996.10
2017-11-24T04:25:16.535Z,996.14
2017-11-24T04:26:17.142Z,996.07
2017-11-24T04:27:17.742Z,996.04
2017-11-24T04:28:18.337Z,995.98
2017-11-24T04:29:18.940Z,996.07
2017-11-24T04:30:19.550Z,996.13
2017-11-24T04:31:20.142Z,996.04
2017-11-24T04:32:20.738Z,995.95
2017-11-24T04:33:21.348Z,995.86
2017-11-24T04:34:21.949Z,995.86
2017-11-24T04:35:22.554Z,996.02
2017-11-24T04:36:23.151Z,996.18
2017-11-24T04:37:23.767Z,996.26
2017-11-24T04:38:24.382Z,996.23
2017-11-24T04:39:24.988Z,996.00
2017-11-24T04:40:25.577Z,995.70
2017-11-24T04:41:26.174Z,995.97
2017-11-24T04:42:26.790Z,996.43
2017-11-24T04:43:27.386Z,996.57
2017-11-24T04:44:27.977Z,996.56
2017-11-24T04:45:28.575Z,996.26
2017-11-24T04:46:29.182Z,995.96
2017-11-24T04:47:29.789Z,995.55
2017-11-24T04:48:30.384Z,995.14
2017-11-24T04:49:30.979Z,995.02
2017-11-24T04:50:31.577Z,995.55
2017-11-24T04:51:32.171Z,996.02
2017-11-24T04:52:32.763Z,995.94
2017-11-24T04:53:33.360Z,995.77
2017-11-24T04:54:33.968Z,995.92
2017-11-24T04:55:34.565Z,995.98
2017-11-24T04:56:35.173Z,995.91
2017-11-24T04:57:35.785Z,995.93
2017-11-24T04:58:36.380Z,995.84
2017-11-24T04:59:36.967Z,995.80
2017-11-24T05:00:37.562Z,995.86
2017-11-24T05:01:38.166Z,995.74
2017-11-24T05:02:38.767Z,995.83
2017-11-24T05:03:39.374Z,995.81
2017-11-24T05:04:39.967Z,995.84
2017-11-24T05:05:40.568Z,995.87
2017-11-24T05:06:41.179Z,995.95
2017-11-24T05:07:41.787Z,995.99
2017-11-24T05:08:42.386Z,995.99
2017-11-24T05:09:42.983Z,995.90
2017-11-24T05:10:43.574Z,995.86
2017-11-24T05:11:44.173Z,995.91
2017-11-24T05:12:44.776Z,995.90
2017-11-24T05:13:45.374Z,995.88
2017-11-24T05:14:45.978Z,996.00
2017-11-24T05:15:46.588Z,995.92
2017-11-24T05:16:47.202Z,996.04
2017-11-24T05:17:47.799Z,996.07
2017-11-24T05:18:48.409Z,996.19
2017-11-24T05:19:49.001Z,996.30
2017-11-24T05:20:49.608Z,996.34
2017-11-24T05:21:50.203Z,996.50
2017-11-24T05:22:50.811Z,996.70
2017-11-24T05:23:51.420Z,996.65
2017-11-24T05:24:52.022Z,996.64
2017-11-24T05:25:52.626Z,996.72
2017-11-24T05:26:53.239Z,996.86
2017-11-24T05:27:53.841Z,996.86
2017-11-24T05:28:54.436Z,996.80
2017-11-24T05:29:55.033Z,996.75
2017-11-24T05:30:55.642Z,996.90
2017-11-24T05:31:56.245Z,997.00
2017-11-24T05:32:56.860Z,996.91
2017-11-24T05:33:57.472Z,996.97
2017-11-24T05:34:58.088Z,997.01
2017-11-24T05:35:58.680Z,997.10
2017-11-24T05:36:59.298Z,997.20
2017-11-24T05:37:59.904Z,997.20
2017-11-24T05:39:00.502Z,997.15
2017-11-24T05:40:01.109Z,997.13
2017-11-24T05:41:01.717Z,997.13
2017-11-24T05:42:02.314Z,997.04
2017-11-24T05:43:02.899Z,997.01
2017-11-24T05:44:03.506Z,996.90
2017-11-24T05:45:04.116Z,996.90
2017-11-24T05:46:04.712Z,996.89
2017-11-24T05:47:05.323Z,996.90
2017-11-24T05:48:05.934Z,996.93
2017-11-24T05:49:06.536Z,996.89
2017-11-24T05:50:07.127Z,996.89
2017-11-24T05:51:07.733Z,996.98
2017-11-24T05:52:08.341Z,996.97
2017-11-24T05:53:08.938Z,997.04
2017-11-24T05:54:09.544Z,997.06
2017-11-24T05:55:10.130Z,997.05
2017-11-24T05:56:10.735Z,997.02
2017-11-24T05:57:11.333Z,997.04
2017-11-24T05:58:11.912Z,997.00
2017-11-24T05:59:12.520Z,997.06
2017-11-24T06:00:13.130Z,997.03
2017-11-24T06:01:13.721Z,996.99
2017-11-24T06:02:14.320Z,996.98
2017-11-24T06:03:14.925Z,996.97
2017-11-24T06:04:15.533Z,996.94
2017-11-24T06:05:16.131Z,996.91
2017-11-24T06:06:16.744Z,996.94
2017-11-24T06:07:17.347Z,996.97
2017-11-24T06:08:17.946Z,996.93
2017-11-24T06:09:18.543Z,996.89
2017-11-24T06:10:19.144Z,996.81
2017-11-24T06:11:19.747Z,996.79
2017-11-24T06:12:20.348Z,996.72
2017-11-24T06:13:20.948Z,996.76
2017-11-24T06:14:21.560Z,996.75
2017-11-24T06:15:22.165Z,996.83
2017-11-24T06:16:22.765Z,996.81
2017-11-24T06:17:23.368Z,996.79
2017-11-24T06:18:23.970Z,996.76
2017-11-24T06:19:24.556Z,996.69
2017-11-24T06:20:25.154Z,996.71
2017-11-24T06:21:25.749Z,996.76
2017-11-24T06:22:26.351Z,996.89
2017-11-24T06:23:26.942Z,996.83
2017-11-24T06:24:27.551Z,996.75
2017-11-24T06:25:28.157Z,996.88
2017-11-24T06:26:28.765Z,996.97
2017-11-24T06:27:29.366Z,996.97
2017-11-24T06:28:29.965Z,996.97
2017-11-24T06:29:30.567Z,996.93
2017-11-24T06:30:31.164Z,996.92
2017-11-24T06:31:31.769Z,996.75
2017-11-24T06:32:32.387Z,996.65
2017-11-24T06:33:33.048Z,996.58
2017-11-24T06:34:33.614Z,996.68
2017-11-24T06:40:13.604Z,997.11
2017-11-24T06:41:14.216Z,997.19
2017-11-24T06:42:14.829Z,997.18
2017-11-24T06:43:15.446Z,997.18
2017-11-24T06:44:16.053Z,997.23
2017-11-24T06:45:16.658Z,997.33
2017-11-24T06:46:17.279Z,997.37
2017-11-24T06:47:17.884Z,997.36
2017-11-24T06:48:18.483Z,997.39
2017-11-24T06:49:19.072Z,997.44
2017-11-24T06:50:19.669Z,997.48
2017-11-24T06:51:20.271Z,997.52
2017-11-24T06:52:20.877Z,997.57
2017-11-24T06:53:21.470Z,997.70
2017-11-24T06:54:22.072Z,997.82
2017-11-24T06:55:22.678Z,997.91
2017-11-24T06:56:23.292Z,997.98
2017-11-24T06:57:23.902Z,998.03
2017-11-24T06:58:24.499Z,998.03
2017-11-24T06:59:25.117Z,998.04
2017-11-24T07:00:25.729Z,998.01
2017-11-24T07:01:26.331Z,997.97
2017-11-24T07:02:26.931Z,997.96
2017-11-24T07:03:27.538Z,997.99
2017-11-24T07:04:28.140Z,998.03
2017-11-24T07:05:28.736Z,998.04
2017-11-24T07:06:29.329Z,998.03
2017-11-24T07:07:29.926Z,998.10
2017-11-24T07:08:30.521Z,998.10
2017-11-24T07:09:31.128Z,998.11
2017-11-24T07:10:31.727Z,998.14
2017-11-24T07:11:32.343Z,998.19
2017-11-24T07:12:32.944Z,998.16
2017-11-24T07:13:33.559Z,998.11
2017-11-24T07:14:34.146Z,998.05
2017-11-24T07:15:34.753Z,998.00
2017-11-24T07:16:35.356Z,997.95
2017-11-24T07:17:35.949Z,997.85
2017-11-24T07:18:36.571Z,997.84
2017-11-24T07:19:37.176Z,997.88
2017-11-24T07:20:37.762Z,997.96
2017-11-24T07:21:38.359Z,997.99
2017-11-24T07:22:38.958Z,998.06
2017-11-24T07:23:39.561Z,998.11
2017-11-24T07:24:40.159Z,998.07
2017-11-24T07:25:40.760Z,998.08
2017-11-24T07:26:41.370Z,998.02
2017-11-24T07:27:42.000Z,997.98
2017-11-24T07:28:42.586Z,997.93
2017-11-24T07:29:43.198Z,997.94
2017-11-24T07:30:43.796Z,997.99
2017-11-24T07:31:44.397Z,998.00
2017-11-24T07:32:45.001Z,997.98
2017-11-24T07:33:45.617Z,998.03
2017-11-24T07:34:46.209Z,998.09
2017-11-24T07:35:46.824Z,998.17
2017-11-24T07:36:47.434Z,998.22
2017-11-24T07:37:48.047Z,998.21
2017-11-24T07:38:48.661Z,998.16
2017-11-24T07:39:49.281Z,998.12
2017-11-24T07:40:49.879Z,998.11
2017-11-24T07:41:50.476Z,998.20
2017-11-24T07:42:51.087Z,998.24
2017-11-24T07:43:51.692Z,998.34
2017-11-24T07:44:52.294Z,998.45
2017-11-24T07:45:52.889Z,998.46
2017-11-24T07:46:53.495Z,998.47
2017-11-24T07:47:54.091Z,998.51
2017-11-24T07:48:54.688Z,998.54
2017-11-24T07:49:55.298Z,998.58
2017-11-24T07:50:55.914Z,998.66
2017-11-24T07:51:56.529Z,998.73
2017-11-24T07:52:57.149Z,998.83
2017-11-24T07:53:57.747Z,998.83
2017-11-24T07:54:58.338Z,998.89
2017-11-24T07:55:59.000Z,998.91
2017-11-24T07:56:59.600Z,998.83
2017-11-24T07:58:00.202Z,998.84
2017-11-24T07:59:00.808Z,998.85
2017-11-24T08:00:01.405Z,998.84
2017-11-24T08:01:02.002Z,998.86
2017-11-24T08:02:02.598Z,998.87
2017-11-24T08:03:03.206Z,998.86
2017-11-24T08:04:03.801Z,998.86
2017-11-24T08:05:04.405Z,998.85
2017-11-24T08:06:05.020Z,998.91
2017-11-24T08:07:05.621Z,998.88
2017-11-24T08:08:06.223Z,998.93
2017-11-24T08:09:06.832Z,998.94
2017-11-24T08:10:07.432Z,998.99
2017-11-24T08:11:08.030Z,999.06
2017-11-24T08:12:08.641Z,999.06
2017-11-24T08:13:09.239Z,999.04
2017-11-24T08:14:09.851Z,999.06
2017-11-24T08:15:10.446Z,999.06
2017-11-24T08:16:11.061Z,999.06
2017-11-24T08:17:11.689Z,999.06
2017-11-24T08:18:12.319Z,999.05
2017-11-24T08:19:12.906Z,998.98
2017-11-24T08:20:13.514Z,998.99
2017-11-24T08:21:14.125Z,999.06
2017-11-24T08:22:14.739Z,999.09
2017-11-24T08:23:15.364Z,999.13
2017-11-24T08:24:15.959Z,999.11
2017-11-24T08:25:16.557Z,999.11
2017-11-24T08:26:17.165Z,999.10
2017-11-24T08:27:17.767Z,999.05
2017-11-24T08:28:18.384Z,999.07
2017-11-24T08:29:18.995Z,999.07
2017-11-24T08:30:19.601Z,999.08
2017-11-24T08:31:20.201Z,999.14
2017-11-24T08:32:20.822Z,999.17
2017-11-24T08:33:21.424Z,999.18
2017-11-24T08:34:22.016Z,999.18
2017-11-24T08:35:22.623Z,999.21
2017-11-24T08:36:23.235Z,999.20
2017-11-24T08:37:23.837Z,999.20
2017-11-24T08:38:24.442Z,999.20
2017-11-24T08:39:25.059Z,999.18
2017-11-24T08:40:25.658Z,999.17
2017-11-24T08:41:26.260Z,999.16
2017-11-24T08:42:26.866Z,999.22
2017-11-24T08:43:27.478Z,999.26
2017-11-24T08:44:28.077Z,999.25
2017-11-24T08:45:28.676Z,999.23
2017-11-24T08:46:29.280Z,999.25
2017-11-24T08:47:29.877Z,999.26
2017-11-24T08:48:30.488Z,999.33
2017-11-24T08:49:31.101Z,999.34
2017-11-24T08:50:31.700Z,999.34
2017-11-24T08:51:32.303Z,999.34
2017-11-24T08:52:32.911Z,999.36
2017-11-24T08:53:33.504Z,999.41
2017-11-24T08:54:34.114Z,999.42
2017-11-24T08:55:34.719Z,999.39
2017-11-24T08:56:35.333Z,999.43
2017-11-24T08:57:35.948Z,999.46
2017-11-24T08:58:36.562Z,999.46
2017-11-24T08:59:37.175Z,999.47
2017-11-24T09:00:37.790Z,999.48
2017-11-24T09:01:38.397Z,999.54
2017-11-24T09:02:39.016Z,999.55
2017-11-24T09:03:39.611Z,999.54
2017-11-24T09:04:40.208Z,999.53
2017-11-24T09:05:40.815Z,999.59
2017-11-24T09:06:41.409Z,999.61
2017-11-24T09:07:42.011Z,999.56
2017-11-24T09:08:42.625Z,999.56
2017-11-24T09:09:43.244Z,999.61
2017-11-24T09:10:43.864Z,999.61
2017-11-24T09:11:44.476Z,999.63
2017-11-24T09:12:45.090Z,999.65
2017-11-24T09:13:45.716Z,999.67
2017-11-24T09:14:46.342Z,999.67
2017-11-24T09:15:46.968Z,999.68
2017-11-24T09:16:47.581Z,999.73
2017-11-24T09:17:48.199Z,999.73
2017-11-24T09:18:48.807Z,999.77
2017-11-24T09:19:49.441Z,999.79
2017-11-24T09:22:36.324Z,999.81
2017-11-24T09:23:36.932Z,999.85
2017-11-24T09:24:37.561Z,999.88
2017-11-24T09:25:38.183Z,999.86
2017-11-24T09:26:38.788Z,999.83
2017-11-24T09:27:39.394Z,999.78
2017-11-24T09:28:40.034Z,999.80
2017-11-24T09:29:40.659Z,999.81
2017-11-24T09:30:41.290Z,999.85
2017-11-24T09:31:41.910Z,999.91
2017-11-24T09:32:42.503Z,999.97
2017-11-24T09:33:43.122Z,999.93
2017-11-24T09:34:43.729Z,999.99
2017-11-24T09:35:44.334Z,1000.03
2017-11-24T09:36:44.946Z,1000.12
2017-11-24T09:37:45.571Z,1000.15
2017-11-24T09:38:46.404Z,1000.17
2017-11-24T09:39:47.017Z,1000.22
2017-11-24T09:40:47.610Z,1000.23
2017-11-24T09:41:48.219Z,1000.29
2017-11-24T09:42:48.823Z,1000.27
2017-11-24T09:43:49.430Z,1000.32
2017-11-24T09:44:50.046Z,1000.29
2017-11-24T09:45:50.887Z,1000.32
2017-11-24T09:46:51.494Z,1000.29
2017-11-24T09:47:52.107Z,1000.32
2017-11-24T09:48:52.728Z,1000.34
2017-11-24T09:49:53.339Z,1000.37
2017-11-24T09:50:53.950Z,1000.40
2017-11-24T09:51:54.565Z,1000.40
2017-11-24T09:52:55.197Z,1000.43
2017-11-24T09:53:55.818Z,1000.42
2017-11-24T09:54:56.421Z,1000.44
2017-11-24T09:55:57.024Z,1000.41
2017-11-24T09:56:57.622Z,1000.43
2017-11-24T09:57:58.242Z,1000.46
2017-11-24T09:58:58.845Z,1000.41
2017-11-24T09:59:59.462Z,1000.48
2017-11-24T10:01:00.084Z,1000.50
2017-11-24T10:02:00.694Z,1000.54
2017-11-24T10:03:01.313Z,1000.55
2017-11-24T10:04:01.945Z,1000.56
2017-11-24T10:05:02.564Z,1000.54
2017-11-24T10:06:03.188Z,1000.48
2017-11-24T10:07:03.805Z,1000.51
2017-11-24T10:08:04.419Z,1000.48
2017-11-24T10:09:05.040Z,1000.53
2017-11-24T10:10:05.641Z,1000.49
2017-11-24T10:11:06.265Z,1000.49
2017-11-24T10:12:06.860Z,1000.52
2017-11-24T10:13:07.492Z,1000.46
2017-11-24T10:14:08.108Z,1000.48
2017-11-24T10:15:08.724Z,1000.49
2017-11-24T10:16:09.346Z,1000.51
2017-11-24T10:17:09.971Z,1000.50
2017-11-24T10:18:10.611Z,1000.47
2017-11-24T10:19:11.228Z,1000.47
2017-11-24T10:20:11.841Z,1000.42
2017-11-24T10:21:12.439Z,1000.47
2017-11-24T10:22:13.050Z,1000.49
2017-11-24T10:23:13.660Z,1000.50
2017-11-24T10:24:14.268Z,1000.57
2017-11-24T10:25:14.870Z,1000.55
2017-11-24T10:26:15.472Z,1000.53
2017-11-24T10:27:16.088Z,1000.62
2017-11-24T10:28:16.716Z,1000.59
2017-11-24T10:29:17.332Z,1000.60
2017-11-24T10:30:17.939Z,1000.58
2017-11-24T10:31:18.560Z,1000.58
2017-11-24T10:32:19.168Z,1000.63
2017-11-24T10:33:19.777Z,1000.61
2017-11-24T10:34:20.386Z,1000.60
2017-11-24T10:35:21.004Z,1000.62
2017-11-24T10:36:21.610Z,1000.64
2017-11-24T10:37:22.230Z,1000.64
2017-11-24T10:38:22.833Z,1000.64
2017-11-24T10:39:23.455Z,1000.68
2017-11-24T10:40:24.060Z,1000.62
2017-11-24T10:41:24.665Z,1000.69
2017-11-24T10:42:25.289Z,1000.74
2017-11-24T10:43:25.898Z,1000.75
2017-11-24T10:44:26.507Z,1000.74
2017-11-24T10:45:27.122Z,1000.76
2017-11-24T10:46:27.743Z,1000.76
2017-11-24T10:47:28.351Z,1000.83
2017-11-24T10:48:28.959Z,1000.81
2017-11-24T10:49:29.575Z,1000.87
2017-11-24T10:50:30.194Z,1000.86
2017-11-24T10:51:30.816Z,1000.90
2017-11-24T10:52:31.420Z,1000.91
2017-11-24T10:53:32.042Z,1000.96
2017-11-24T10:54:32.664Z,1000.98
2017-11-24T10:55:33.287Z,1000.94
2017-11-24T10:56:33.890Z,1000.97
2017-11-24T10:57:34.514Z,1000.97
2017-11-24T10:58:35.125Z,1001.01
2017-11-24T10:59:35.745Z,1001.05
2017-11-24T11:00:36.344Z,1001.08
2017-11-24T11:01:36.941Z,1001.08
2017-11-24T11:02:37.556Z,1001.10
2017-11-24T11:03:38.179Z,1001.10
2017-11-24T11:04:38.805Z,1001.12
2017-11-24T11:05:39.644Z,1001.09
2017-11-24T11:06:40.269Z,1001.08
2017-11-24T11:07:40.888Z,1001.11
2017-11-24T11:08:41.506Z,1001.13
2017-11-24T11:09:42.111Z,1001.07
2017-11-24T11:10:42.726Z,1001.18
2017-11-24T11:11:43.350Z,1001.15
2017-11-24T11:12:43.975Z,1001.20
2017-11-24T11:13:44.599Z,1001.19
2017-11-24T11:14:45.225Z,1001.13
2017-11-24T11:15:45.846Z,1001.18
2017-11-24T11:16:46.464Z,1001.22
2017-11-24T11:17:47.087Z,1001.19
2017-11-24T11:18:47.693Z,1001.15
2017-11-24T11:19:48.321Z,1001.19
2017-11-24T11:20:48.945Z,1001.22
2017-11-24T11:21:49.559Z,1001.25
2017-11-24T11:22:50.173Z,1001.27
2017-11-24T11:23:50.798Z,1001.23
2017-11-24T11:24:51.423Z,1001.26
2017-11-24T11:25:52.049Z,1001.24
2017-11-24T11:26:52.657Z,1001.19
2017-11-24T11:27:53.287Z,1001.21
2017-11-24T11:28:53.918Z,1001.22
2017-11-24T11:29:54.533Z,1001.19
2017-11-24T11:30:55.152Z,1001.24
2017-11-24T11:31:55.768Z,1001.27
2017-11-24T11:32:56.377Z,1001.28
2017-11-24T11:33:56.984Z,1001.25
2017-11-24T11:34:57.579Z,1001.28
2017-11-24T11:35:58.204Z,1001.33
2017-11-24T11:36:58.797Z,1001.32
2017-11-24T11:37:59.424Z,1001.30
2017-11-24T11:39:00.059Z,1001.33
2017-11-24T11:40:00.668Z,1001.32
2017-11-24T11:41:01.286Z,1001.37
2017-11-24T11:42:01.898Z,1001.32
2017-11-24T11:43:02.520Z,1001.33
2017-11-24T11:44:03.124Z,1001.30
2017-11-24T11:45:03.734Z,1001.35
2017-11-24T11:46:04.357Z,1001.33
2017-11-24T11:47:04.993Z,1001.35
2017-11-24T11:48:05.590Z,1001.32
2017-11-24T11:49:06.200Z,1001.31
2017-11-24T11:50:06.814Z,1001.33
2017-11-24T11:51:07.436Z,1001.36
2017-11-24T11:52:08.031Z,1001.38
2017-11-24T11:53:08.636Z,1001.40
2017-11-24T11:54:09.277Z,1001.36
2017-11-24T11:55:09.885Z,1001.34
2017-11-24T11:56:10.500Z,1001.38
2017-11-24T11:57:11.123Z,1001.35
2017-11-24T11:58:11.733Z,1001.34
2017-11-24T11:59:12.356Z,1001.37
2017-11-24T12:00:12.971Z,1001.34
2017-11-24T12:01:13.586Z,1001.36
2017-11-24T12:02:14.224Z,1001.34
2017-11-24T12:03:14.847Z,1001.38
2017-11-24T12:04:15.457Z,1001.40
2017-11-24T12:05:16.058Z,1001.36
2017-11-24T12:06:16.678Z,1001.39
2017-11-24T12:07:17.296Z,1001.38
2017-11-24T12:08:17.908Z,1001.39
2017-11-24T12:09:18.522Z,1001.39
2017-11-24T12:10:19.137Z,1001.37
2017-11-24T12:11:19.757Z,1001.40
2017-11-24T12:12:20.358Z,1001.40
2017-11-24T12:13:20.971Z,1001.42
2017-11-24T12:14:21.577Z,1001.42
2017-11-24T12:15:22.187Z,1001.40
2017-11-24T12:16:22.791Z,1001.44
2017-11-24T12:17:23.399Z,1001.45
2017-11-24T12:18:24.019Z,1001.42
2017-11-24T12:19:24.636Z,1001.46
2017-11-24T12:20:25.252Z,1001.44
2017-11-24T12:21:25.852Z,1001.43
2017-11-24T12:22:26.471Z,1001.42
2017-11-24T12:23:27.077Z,1001.43
2017-11-24T12:24:27.682Z,1001.43
2017-11-24T12:25:28.303Z,1001.45
2017-11-24T12:26:28.928Z,1001.45
2017-11-24T12:27:29.551Z,1001.45
2017-11-24T12:28:30.152Z,1001.48
2017-11-24T12:29:30.773Z,1001.50
2017-11-24T12:30:31.603Z,1001.46
2017-11-24T12:31:32.436Z,1001.48
2017-11-24T12:32:33.074Z,1001.50
2017-11-24T12:33:33.670Z,1001.47
2017-11-24T12:34:34.299Z,1001.47
2017-11-24T12:35:34.927Z,1001.53
2017-11-24T12:36:35.542Z,1001.47